Time;durP1;ratioP1;P1;durP2;ratioP2;P2;SDS_P1;SDS_P2;PMS_P1;PMS_P2;Temp;Humidity;BMP_temperature;BMP_pressure;BME280_temperature;BME280_humidity;BME280_pressure;Samples;Min_cycle;Max_cycle;Signal;HPM_P1;HPM_P2
2022/10/01 00:03:00;;;;;;;11.82;6.35;;;;;;;11.08;67.42;99812.44;10471704;28;20132;-61
2022/10/01 00:08:02;;;;;;;12.73;6.05;;;;;;;11.16;67.58;99800.72;10466009;28;20056;-62
2022/10/01 00:13:03;;;;;;;8.95;5.90;;;;;;;11.22;67.60;99799.13;10472440;28;20086;-60
2022/10/01 00:18:05;;;;;;;10.40;5.22;;;;;;;11.25;67.65;99787.94;10476672;28;20040;-58
2022/10/01 00:23:06;;;;;;;7.45;5.40;;;;;;;11.26;67.72;99782.38;10469294;28;20131;-58
2022/10/01 00:28:08;;;;;;;6.75;5.13;;;;;;;11.36;67.50;99778.53;10472531;28;20048;-60
2022/10/01 00:33:09;;;;;;;8.40;5.30;;;;;;;11.48;67.14;99766.19;10474299;28;20061;-63
2022/10/01 00:38:14;;;;;;;9.55;5.20;;;;;;;11.45;67.29;99771.94;10472533;28;20414;-61
2022/10/01 00:43:27;;;;;;;6.72;4.57;;;;;;;11.43;67.51;99752.47;10472087;28;20052;-59
2022/10/01 00:48:33;;;;;;;8.52;5.00;;;;;;;11.50;67.57;99750.69;10469690;28;20132;-61
2022/10/01 00:53:36;;;;;;;11.00;5.30;;;;;;;11.45;67.75;99750.44;10465714;28;20128;-58
2022/10/01 00:58:38;;;;;;;5.85;4.55;;;;;;;11.42;67.88;99740.91;10463371;28;20491;-61
2022/10/01 01:03:39;;;;;;;9.23;4.93;;;;;;;11.40;68.22;99742.94;10450943;28;20057;-61
2022/10/01 01:08:42;;;;;;;12.95;5.50;;;;;;;11.47;68.28;99743.84;10480373;28;20091;-62
2022/10/01 01:14:00;;;;;;;8.95;6.05;;;;;;;11.43;68.53;99742.56;10477064;28;20045;-61
2022/10/01 01:19:13;;;;;;;12.25;6.78;;;;;;;11.48;68.38;99739.28;10476732;28;20060;-60
2022/10/01 01:24:46;;;;;;;10.38;6.47;;;;;;;11.56;68.22;99728.34;10475343;28;20072;-58
2022/10/01 01:30:03;;;;;;;10.45;7.63;;;;;;;11.65;67.75;99715.56;10473295;28;20075;-59
2022/10/01 01:35:07;;;;;;;10.60;7.03;;;;;;;11.66;67.88;99717.22;10478486;28;20542;-60
2022/10/01 01:40:11;;;;;;;11.20;7.65;;;;;;;11.69;67.98;99714.16;10479660;28;20544;-61
2022/10/01 01:45:19;;;;;;;13.65;8.55;;;;;;;11.66;68.25;99709.16;10476068;28;20064;-59
2022/10/01 01:50:24;;;;;;;13.98;7.90;;;;;;;11.69;68.10;99706.06;10484333;28;20072;-62
2022/10/01 01:55:28;;;;;;;15.48;8.40;;;;;;;11.63;68.40;99694.25;10474901;28;20059;-60
2022/10/01 02:00:30;;;;;;;13.10;7.55;;;;;;;11.65;68.19;99699.41;10473584;28;20147;-61
2022/10/01 02:05:42;;;;;;;13.63;8.15;;;;;;;11.69;68.01;99693.44;10476853;28;20297;-60
2022/10/01 02:11:05;;;;;;;14.35;8.02;;;;;;;11.70;68.34;99688.88;10479021;28;20067;-61
2022/10/01 02:16:19;;;;;;;11.20;6.43;;;;;;;11.66;68.00;99688.44;10472321;28;20074;-64
2022/10/01 02:21:38;;;;;;;12.23;7.55;;;;;;;11.68;68.06;99685.56;10466891;28;20162;-61
2022/10/01 02:26:44;;;;;;;10.35;6.57;;;;;;;11.68;67.75;99678.31;10473032;28;20079;-60
2022/10/01 02:31:48;;;;;;;11.48;6.85;;;;;;;11.54;68.27;99675.75;10479183;28;20222;-60
2022/10/01 02:36:51;;;;;;;12.10;7.57;;;;;;;11.64;68.39;99676.22;10473934;28;20509;-61
2022/10/01 02:41:55;;;;;;;13.45;7.43;;;;;;;11.68;68.39;99677.47;10475523;28;20036;-60
2022/10/01 02:47:06;;;;;;;12.48;7.30;;;;;;;11.68;68.06;99666.72;10476072;28;20064;-60
2022/10/01 02:52:22;;;;;;;10.00;7.40;;;;;;;11.67;68.46;99657.81;10481507;28;20060;-60
2022/10/01 02:57:28;;;;;;;10.50;7.53;;;;;;;11.60;68.74;99654.25;10476730;28;20060;-60
2022/10/01 03:02:30;;;;;;;11.93;7.20;;;;;;;11.71;68.25;99651.00;10475228;28;20064;-62
2022/10/01 03:07:34;;;;;;;12.50;7.18;;;;;;;11.78;68.07;99647.50;10463040;28;20065;-61
2022/10/01 03:12:36;;;;;;;11.13;7.07;;;;;;;11.77;68.26;99635.03;10473608;28;20048;-59
2022/10/01 03:17:37;;;;;;;9.55;6.03;;;;;;;11.73;68.36;99633.78;10458982;28;20944;-60
2022/10/01 03:22:39;;;;;;;8.25;6.28;;;;;;;11.73;68.67;99636.47;10477967;28;20040;-61
2022/10/01 03:27:41;;;;;;;8.98;6.30;;;;;;;11.65;68.97;99641.03;10479066;28;20076;-61
2022/10/01 03:32:42;;;;;;;9.15;5.82;;;;;;;11.61;69.00;99629.00;10474748;28;20084;-59
2022/10/01 03:37:46;;;;;;;11.13;6.15;;;;;;;11.48;69.30;99616.31;10470673;28;20045;-59
2022/10/01 03:42:48;;;;;;;9.15;6.72;;;;;;;11.14;70.61;99610.94;10475010;28;20539;-60
2022/10/01 03:47:51;;;;;;;10.13;7.30;;;;;;;10.99;71.15;99616.44;10473499;28;20092;-57
2022/10/01 03:52:52;;;;;;;14.43;8.75;;;;;;;11.00;71.27;99620.78;10470878;28;20113;-58
2022/10/01 03:57:54;;;;;;;14.80;8.60;;;;;;;10.98;71.62;99623.69;10471404;28;20076;-57
2022/10/01 04:02:55;;;;;;;10.70;8.32;;;;;;;11.01;71.66;99601.75;10472020;28;20045;-58
2022/10/01 04:07:58;;;;;;;16.65;9.50;;;;;;;11.00;72.12;99612.72;10475469;28;20082;-58
2022/10/01 04:13:00;;;;;;;16.77;9.70;;;;;;;10.94;72.52;99603.59;10469606;28;20084;-58
2022/10/01 04:18:05;;;;;;;17.10;10.40;;;;;;;10.92;72.81;99605.66;10467665;28;20106;-61
2022/10/01 04:23:06;;;;;;;16.00;10.63;;;;;;;10.93;72.92;99610.00;10475336;28;20119;-57
2022/10/01 04:28:10;;;;;;;15.98;10.02;;;;;;;11.07;72.80;99602.84;10486854;28;20060;-58
2022/10/01 04:33:14;;;;;;;23.02;11.02;;;;;;;10.99;73.64;99597.63;10484316;28;20047;-60
2022/10/01 04:38:16;;;;;;;18.60;11.50;;;;;;;10.97;73.54;99594.28;10460973;28;20075;-60
2022/10/01 04:43:17;;;;;;;16.27;10.25;;;;;;;11.00;74.33;99578.59;10478290;28;20066;-60
2022/10/01 04:48:19;;;;;;;16.60;10.43;;;;;;;11.01;74.46;99566.81;10485631;28;20068;-61
2022/10/01 04:53:20;;;;;;;15.52;9.50;;;;;;;11.03;74.71;99553.97;10479502;28;20068;-59
2022/10/01 04:58:22;;;;;;;14.15;7.95;;;;;;;11.02;75.11;99555.03;10478877;28;20549;-61
2022/10/01 05:03:23;;;;;;;11.75;6.88;;;;;;;11.07;75.31;99540.97;10477107;28;20127;-61
2022/10/01 05:08:24;;;;;;;17.23;7.82;;;;;;;11.15;75.50;99529.22;10478126;28;20441;-59
2022/10/01 05:13:30;;;;;;;10.70;6.93;;;;;;;11.17;75.85;99513.72;10477160;28;20037;-59
2022/10/01 05:18:32;;;;;;;9.88;6.68;;;;;;;11.16;76.02;99512.88;10479709;28;20072;-59
2022/10/01 05:23:33;;;;;;;9.63;5.20;;;;;;;11.09;76.35;99515.53;10477396;28;20111;-67
2022/10/01 05:28:35;;;;;;;11.48;5.80;;;;;;;11.14;76.47;99535.63;10481566;28;20418;-68
2022/10/01 05:33:36;;;;;;;8.90;5.25;;;;;;;11.18;76.43;99548.50;10488353;28;20103;-68
2022/10/01 05:38:38;;;;;;;9.02;4.82;;;;;;;11.22;76.77;99548.94;10495119;28;20060;-66
2022/10/01 05:43:39;;;;;;;9.70;6.78;;;;;;;11.24;76.44;99545.00;10495426;28;20040;-64
2022/10/01 05:48:41;;;;;;;9.25;5.18;;;;;;;11.25;76.42;99519.72;10502783;28;20044;-65
2022/10/01 05:53:42;;;;;;;7.53;4.97;;;;;;;11.28;76.52;99507.75;10502568;28;20917;-65
2022/10/01 05:58:49;;;;;;;;;;;;;;;11.22;77.02;99522.84;10502781;28;20407;-64
2022/10/01 06:03:51;;;;;;;7.13;4.80;;;;;;;11.20;76.80;99514.16;10496291;28;19927;-62
2022/10/01 06:08:53;;;;;;;7.72;4.50;;;;;;;11.20;77.23;99502.56;10489411;28;20056;-63
2022/10/01 06:13:54;;;;;;;7.78;5.22;;;;;;;11.22;77.29;99466.34;10490596;28;20044;-64
2022/10/01 06:18:56;;;;;;;9.15;4.80;;;;;;;11.18;77.82;99459.72;10489997;28;20529;-61
2022/10/01 06:23:58;;;;;;;9.55;5.20;;;;;;;11.17;77.75;99470.69;10477770;28;20666;-63
2022/10/01 06:29:00;;;;;;;9.77;4.95;;;;;;;11.13;78.07;99466.72;10489762;28;20131;-61
2022/10/01 06:34:01;;;;;;;8.82;4.55;;;;;;;11.17;78.41;99465.28;10482488;28;20070;-64
2022/10/01 06:39:03;;;;;;;7.90;5.20;;;;;;;11.22;77.90;99478.97;10488406;28;20064;-60
2022/10/01 06:44:04;;;;;;;10.40;5.75;;;;;;;11.27;78.11;99487.25;10480744;28;20119;-60
2022/10/01 06:49:06;;;;;;;8.25;5.20;;;;;;;11.29;78.06;99477.97;10488396;28;20048;-62
2022/10/01 06:54:07;;;;;;;11.23;5.57;;;;;;;11.32;78.27;99465.97;10467032;28;20041;-60
2022/10/01 06:59:09;;;;;;;9.15;4.43;;;;;;;11.27;78.65;99436.97;10468967;28;20068;-59
2022/10/01 07:04:11;;;;;;;10.35;5.00;;;;;;;11.27;78.96;99425.38;10475096;28;20139;-63
2022/10/01 07:09:13;;;;;;;8.95;5.07;;;;;;;11.32;78.79;99431.81;10473512;28;20610;-62
2022/10/01 07:14:14;;;;;;;7.80;5.40;;;;;;;11.35;79.25;99444.03;10457528;28;20280;-59
2022/10/01 07:19:16;;;;;;;7.00;4.10;;;;;;;11.39;78.96;99444.44;10468323;28;20502;-59
2022/10/01 07:24:17;;;;;;;8.63;4.65;;;;;;;11.39;79.05;99429.13;10478392;28;20068;-59
2022/10/01 07:29:18;;;;;;;6.97;5.13;;;;;;;11.40;79.15;99457.72;10475361;28;20071;-61
2022/10/01 07:34:21;;;;;;;8.65;5.00;;;;;;;11.38;79.39;99438.25;10474865;28;20105;-60
2022/10/01 07:39:23;;;;;;;11.30;4.90;;;;;;;11.44;79.43;99412.38;10465627;28;20102;-60
2022/10/01 07:44:26;;;;;;;8.65;4.35;;;;;;;11.48;79.26;99437.84;10475178;28;20040;-60
2022/10/01 07:49:28;;;;;;;7.43;5.35;;;;;;;11.51;79.58;99440.13;10482518;28;20545;-62
2022/10/01 07:54:29;;;;;;;8.07;4.78;;;;;;;11.61;79.02;99459.41;10481187;28;20055;-61
2022/10/01 07:59:32;;;;;;;10.93;5.07;;;;;;;11.67;79.06;99460.44;10479402;28;20083;-61
2022/10/01 08:09:53;;;;;;;6.53;4.75;;;;;;;11.59;79.46;99418.41;10482091;28;20101;-61
2022/10/01 08:14:54;;;;;;;8.75;5.65;;;;;;;11.53;79.75;99451.50;10480156;28;20136;-61
2022/10/01 08:19:56;;;;;;;10.30;5.75;;;;;;;11.62;79.75;99444.09;10476802;28;20098;-60
2022/10/01 08:24:57;;;;;;;11.65;6.05;;;;;;;11.60;79.84;99438.06;10478697;28;20051;-59
2022/10/01 08:29:59;;;;;;;8.85;6.00;;;;;;;11.66;79.85;99440.75;10447852;28;20072;-59
2022/10/01 08:35:00;;;;;;;8.07;4.75;;;;;;;11.67;79.90;99431.66;10479072;28;20048;-59
2022/10/01 08:40:02;;;;;;;10.27;5.80;;;;;;;11.65;79.93;99462.50;10480013;28;20044;-59
2022/10/01 08:45:11;;;;;;;12.98;6.68;;;;;;;11.69;79.99;99469.16;10476355;28;20040;-60
2022/10/01 08:50:34;;;;;;;8.85;5.80;;;;;;;11.76;79.83;99469.97;10471422;28;20553;-68
2022/10/01 08:55:36;;;;;;;8.27;6.00;;;;;;;11.82;80.07;99471.03;10470988;28;20049;-63
2022/10/01 09:00:42;;;;;;;5.85;5.03;;;;;;;11.86;80.02;99475.78;10489143;28;20041;-61
2022/10/01 09:05:57;;;;;;;7.25;4.05;;;;;;;11.87;80.07;99469.38;10474315;28;20108;-61
2022/10/01 09:11:05;;;;;;;6.43;4.15;;;;;;;11.98;80.19;99437.50;10475459;28;20048;-63
2022/10/01 09:16:26;;;;;;;7.20;4.47;;;;;;;12.03;80.60;99454.69;10501474;28;20442;-63
2022/10/01 09:21:46;;;;;;;8.90;4.07;;;;;;;12.08;80.25;99470.22;10485869;28;20037;-66
2022/10/01 09:26:48;;;;;;;5.45;2.78;;;;;;;12.16;80.41;99456.53;10505317;28;20071;-62
2022/10/01 09:31:52;;;;;;;4.53;2.97;;;;;;;12.26;80.38;99461.50;10508069;28;20037;-64
2022/10/01 09:37:04;;;;;;;6.47;2.40;;;;;;;12.26;80.34;99462.38;10509254;28;20411;-62
2022/10/01 09:42:06;;;;;;;4.18;3.33;;;;;;;12.30;80.47;99473.53;10497765;28;20071;-63
2022/10/01 09:47:16;;;;;;;6.93;3.40;;;;;;;12.43;80.09;99484.28;10506203;28;20041;-62
2022/10/01 09:52:25;;;;;;;8.15;3.72;;;;;;;12.48;80.16;99481.00;10514469;28;20041;-63
2022/10/01 09:57:32;;;;;;;3.42;2.63;;;;;;;12.55;79.94;99478.28;10517620;28;20041;-68
2022/10/01 10:02:43;;;;;;;3.87;2.30;;;;;;;12.48;80.39;99470.22;10519456;28;20107;-65
2022/10/01 10:07:57;;;;;;;4.78;2.08;;;;;;;12.52;80.31;99482.22;10510279;28;20044;-63
2022/10/01 10:13:16;;;;;;;4.70;2.28;;;;;;;12.65;79.87;99487.56;10509867;28;20130;-62
2022/10/01 10:18:27;;;;;;;3.67;3.08;;;;;;;12.66;80.52;99483.03;10496818;28;20056;-63
2022/10/01 10:23:28;;;;;;;7.20;3.95;;;;;;;12.64;80.80;99490.50;10497667;28;20043;-67
2022/10/01 10:28:41;;;;;;;6.25;2.95;;;;;;;12.69;79.87;99488.81;10508814;28;20101;-67
2022/10/01 10:33:50;;;;;;;5.65;3.47;;;;;;;12.74;80.41;99485.50;10524966;28;20051;-69
2022/10/01 10:38:52;;;;;;;6.63;2.50;;;;;;;12.79;80.40;99496.47;10510988;28;20044;-69
2022/10/01 10:44:06;;;;;;;3.95;2.88;;;;;;;12.71;80.53;99507.47;10520217;28;20047;-69
2022/10/01 10:49:22;;;;;;;2.63;2.08;;;;;;;12.73;80.18;99505.41;10530868;28;20041;-70
2022/10/01 10:54:36;;;;;;;3.13;2.10;;;;;;;12.79;79.97;99507.25;10515080;28;20063;-71
2022/10/01 10:59:37;;;;;;;3.00;1.92;;;;;;;12.87;80.26;99512.44;10510149;28;20029;-70
2022/10/01 11:04:43;;;;;;;2.50;2.30;;;;;;;12.93;79.74;99507.22;10529373;28;20052;-71
2022/10/01 11:09:56;;;;;;;10.75;3.53;;;;;;;13.05;79.88;99513.59;10524007;28;20028;-70
2022/10/01 11:15:16;;;;;;;2.70;2.05;;;;;;;13.10;79.95;99498.44;10648290;22;20045;-71
2022/10/01 11:20:37;;;;;;;3.10;1.67;;;;;;;13.13;80.08;99510.69;10520478;28;20146;-68
2022/10/01 11:26:12;;;;;;;2.38;1.70;;;;;;;13.16;80.12;99512.94;10535961;28;20083;-71
2022/10/01 11:31:21;;;;;;;3.17;1.48;;;;;;;13.24;80.15;99515.41;10537977;28;20043;-70
2022/10/01 11:37:00;;;;;;;4.05;1.95;;;;;;;13.33;79.75;99523.28;10535672;28;20100;-70
2022/10/01 11:42:09;;;;;;;2.05;1.35;;;;;;;13.38;80.08;99528.88;10536986;28;20052;-69
2022/10/01 11:47:18;;;;;;;2.40;2.20;;;;;;;13.38;80.04;99528.88;10536915;28;20024;-70
2022/10/01 11:52:32;;;;;;;3.13;2.70;;;;;;;13.42;79.90;99527.41;10536836;28;20028;-69
2022/10/01 12:03:01;;;;;;;3.65;2.30;;;;;;;13.58;79.36;99521.50;10536110;28;20112;-69
2022/10/01 12:08:10;;;;;;;3.83;2.50;;;;;;;13.70;79.69;99527.03;10539072;28;20028;-70
2022/10/01 12:13:24;;;;;;;2.60;2.40;;;;;;;13.96;79.94;99525.22;10536159;28;20044;-70
2022/10/01 12:18:50;;;;;;;1.45;1.35;;;;;;;14.09;79.65;99522.44;10534135;28;20024;-69
2022/10/01 12:24:14;;;;;;;3.42;1.60;;;;;;;14.37;79.95;99519.28;10532198;28;20044;-69
2022/10/01 12:29:31;;;;;;;1.67;1.00;;;;;;;14.35;79.62;99520.56;10535920;28;20028;-68
2022/10/01 12:34:43;;;;;;;2.72;1.58;;;;;;;14.60;79.43;99516.00;10519792;28;20062;-69
2022/10/01 12:39:56;;;;;;;3.13;1.13;;;;;;;15.01;79.23;99516.41;10528014;28;20116;-69
2022/10/01 12:45:05;;;;;;;2.00;0.80;;;;;;;15.09;79.04;99507.97;10525108;28;20040;-67
2022/10/01 12:50:34;;;;;;;3.50;1.00;;;;;;;15.43;78.79;99511.91;10521984;28;20078;-67
2022/10/01 12:55:45;;;;;;;1.05;0.50;;;;;;;15.87;77.70;99511.75;10500815;28;20052;-68
2022/10/01 13:00:59;;;;;;;0.82;0.50;;;;;;;16.30;77.42;99505.25;10464735;28;20071;-67
2022/10/01 13:06:22;;;;;;;0.93;0.50;;;;;;;16.57;76.75;99508.31;10474321;28;20040;-67
2022/10/01 13:11:57;;;;;;;0.70;0.40;;;;;;;16.68;76.34;99508.53;10488838;28;20079;-68
2022/10/01 13:17:05;;;;;;;1.48;0.80;;;;;;;16.64;75.97;99508.19;10461533;28;20063;-66
2022/10/01 13:22:17;;;;;;;1.13;0.52;;;;;;;16.68;75.33;99509.38;10488514;28;20044;-66
2022/10/01 13:27:39;;;;;;;3.33;0.63;;;;;;;16.60;75.63;99509.72;10495901;28;20044;-65
2022/10/01 13:32:57;;;;;;;3.10;1.00;;;;;;;16.56;75.45;99517.50;10492492;28;20102;-66
2022/10/01 13:37:59;;;;;;;3.20;0.90;;;;;;;16.53;75.48;99507.16;10496642;28;20052;-65
2022/10/01 13:43:22;;;;;;;1.33;0.68;;;;;;;16.51;75.46;99513.84;10492442;28;20380;-66
2022/10/01 13:48:28;;;;;;;3.47;0.70;;;;;;;16.55;75.40;99526.72;10495376;28;20090;-65
2022/10/01 13:53:34;;;;;;;1.75;0.40;;;;;;;16.59;74.99;99518.94;10475517;28;20040;-65
2022/10/01 13:58:40;;;;;;;4.60;0.60;;;;;;;16.78;74.63;99511.50;10495332;28;20056;-63
2022/10/01 14:03:56;;;;;;;2.65;0.40;;;;;;;16.89;74.30;99518.00;10492213;28;20372;-65
2022/10/01 14:09:22;;;;;;;0.88;0.70;;;;;;;17.12;73.94;99519.84;10475206;28;20048;-64
2022/10/01 14:19:53;;;;;;;1.85;0.45;;;;;;;17.56;73.56;99512.88;10494218;28;20094;-61
2022/10/01 14:25:08;;;;;;;1.27;0.40;;;;;;;17.68;72.74;99518.25;10496048;28;20064;-63
2022/10/01 14:30:23;;;;;;;1.00;0.40;;;;;;;17.83;72.37;99514.97;10497802;28;20480;-65
2022/10/01 14:35:34;;;;;;;2.30;0.70;;;;;;;17.93;71.51;99514.38;10497680;28;20069;-65
2022/10/01 14:40:38;;;;;;;1.75;0.40;;;;;;;18.09;71.53;99505.41;10477017;28;20127;-65
2022/10/01 14:45:55;;;;;;;2.03;0.30;;;;;;;18.00;70.97;99502.25;10499281;28;20074;-64
2022/10/01 14:50:59;;;;;;;0.80;0.27;;;;;;;18.06;71.44;99522.22;10502420;28;20113;-64
2022/10/01 14:56:07;;;;;;;1.08;0.20;;;;;;;18.18;70.89;99522.16;10505235;28;20127;-66
2022/10/01 15:01:16;;;;;;;;;;;;;;;18.18;72.12;99528.41;10485214;28;20044;-66
2022/10/01 15:06:22;;;;;;;1.65;0.20;;;;;;;18.40;70.74;99533.13;10502191;28;20412;-65
2022/10/01 15:11:29;;;;;;;1.15;0.20;;;;;;;18.47;70.25;99531.06;10465830;28;20044;-64
2022/10/01 15:16:31;;;;;;;0.65;0.10;;;;;;;18.54;69.94;99545.34;10498337;28;20083;-64
2022/10/01 15:21:44;;;;;;;1.27;0.25;;;;;;;18.51;69.47;99564.88;10504590;28;20458;-64
2022/10/01 15:26:47;;;;;;;1.75;0.20;;;;;;;18.47;69.78;99563.72;10502865;28;20048;-67
2022/10/01 15:31:51;;;;;;;1.02;0.10;;;;;;;18.54;69.41;99567.09;10492244;28;20048;-66
2022/10/01 15:36:54;;;;;;;3.30;0.73;;;;;;;18.63;69.39;99562.06;10503657;28;20052;-61
2022/10/01 15:41:58;;;;;;;0.40;0.20;;;;;;;18.63;69.16;99562.06;10471724;28;20036;-61
2022/10/01 15:47:14;;;;;;;0.82;0.30;;;;;;;18.60;69.18;99565.25;10492537;28;20048;-60
2022/10/01 15:57:37;;;;;;;4.03;1.40;;;;;;;18.63;68.93;99595.53;10495861;28;20059;-72
2022/10/01 16:02:38;;;;;;;0.90;0.30;;;;;;;18.69;68.83;99614.69;10512242;28;20071;-70
2022/10/01 16:07:40;;;;;;;2.35;0.32;;;;;;;18.68;68.83;99619.31;10507178;28;20040;-69
2022/10/01 16:12:42;;;;;;;0.52;0.20;;;;;;;18.54;69.04;99634.31;10498486;28;20094;-68
2022/10/01 16:18:01;;;;;;;3.92;0.50;;;;;;;18.50;68.84;99644.03;10503276;28;20063;-69
2022/10/01 16:23:32;;;;;;;1.70;0.30;;;;;;;18.45;69.22;99658.41;10508976;28;20062;-66
2022/10/01 16:28:34;;;;;;;3.17;0.45;;;;;;;18.42;69.28;99662.44;10513067;28;20114;-66
2022/10/01 16:33:36;;;;;;;2.38;0.40;;;;;;;18.32;69.28;99680.47;10520491;28;20040;-67
2022/10/01 16:38:37;;;;;;;1.77;0.35;;;;;;;18.25;69.28;99686.06;10527576;28;20044;-69
2022/10/01 16:43:39;;;;;;;1.55;0.20;;;;;;;18.06;69.56;99688.13;10516719;28;20041;-71
2022/10/01 16:48:40;;;;;;;2.25;0.30;;;;;;;17.98;69.86;99702.94;10532746;28;20055;-71
2022/10/01 16:53:42;;;;;;;4.10;0.50;;;;;;;17.90;70.04;99714.19;10494622;28;20044;-69
2022/10/01 16:58:44;;;;;;;4.50;0.52;;;;;;;17.74;70.51;99721.16;10529262;28;20036;-67
2022/10/01 17:03:46;;;;;;;4.07;1.00;;;;;;;17.61;70.70;99738.56;10526284;28;20088;-69
2022/10/01 17:08:47;;;;;;;3.67;0.77;;;;;;;17.57;70.84;99740.06;10528008;28;20040;-70
2022/10/01 17:13:49;;;;;;;2.28;0.60;;;;;;;17.47;71.11;99758.06;10531234;28;20181;-67
2022/10/01 17:18:50;;;;;;;3.53;0.50;;;;;;;17.35;71.53;99756.16;10497619;28;20079;-70
2022/10/01 17:23:51;;;;;;;5.03;1.00;;;;;;;17.28;71.14;99760.03;10517870;28;20045;-69
2022/10/01 17:28:54;;;;;;;4.82;0.85;;;;;;;17.23;71.32;99766.19;10525425;28;20178;-70
2022/10/01 17:33:55;;;;;;;4.93;0.70;;;;;;;17.17;71.75;99770.66;10504404;28;20032;-70
2022/10/01 17:38:57;;;;;;;4.10;0.60;;;;;;;17.18;72.01;99780.47;10487294;28;20033;-60
2022/10/01 17:43:59;;;;;;;6.25;0.73;;;;;;;17.14;72.04;99790.16;10494260;28;20045;-62
2022/10/01 17:49:00;;;;;;;4.00;0.70;;;;;;;17.13;71.95;99801.25;10494530;28;20048;-62
2022/10/01 17:54:03;;;;;;;3.42;0.50;;;;;;;17.06;72.12;99817.63;10494956;28;20045;-61
2022/10/01 17:59:04;;;;;;;4.53;1.00;;;;;;;17.14;71.97;99830.88;10473992;28;20044;-63
2022/10/01 18:04:06;;;;;;;5.32;0.60;;;;;;;17.07;72.28;99835.59;10493160;28;20124;-61
2022/10/01 18:09:07;;;;;;;3.33;0.95;;;;;;;16.94;72.39;99865.63;10494051;28;20700;-60
2022/10/01 18:14:08;;;;;;;7.97;0.50;;;;;;;17.00;72.12;99872.84;10490080;28;20110;-60
2022/10/01 18:19:10;;;;;;;5.05;0.70;;;;;;;16.92;72.14;99890.28;10474708;28;20041;-63
2022/10/01 18:24:33;;;;;;;6.82;1.25;;;;;;;16.84;72.18;99893.31;10490497;28;20036;-62
2022/10/01 18:29:34;;;;;;;5.32;0.60;;;;;;;16.81;72.02;99908.19;10488125;28;20121;-63
2022/10/01 18:35:12;;;;;;;6.57;0.60;;;;;;;16.77;72.00;99904.25;10494503;28;20068;-60
2022/10/01 18:40:38;;;;;;;2.50;0.73;;;;;;;16.70;71.96;99922.47;10492525;28;20053;-60
2022/10/01 18:46:04;;;;;;;2.83;0.50;;;;;;;16.61;72.08;99940.16;10475514;28;20044;-60
2022/10/01 18:51:24;;;;;;;4.15;0.60;;;;;;;16.55;71.86;99966.28;10493739;28;20036;-62
2022/10/01 18:56:33;;;;;;;5.10;0.68;;;;;;;16.46;72.10;99962.22;10491348;28;20056;-61
2022/10/01 19:02:04;;;;;;;8.48;0.80;;;;;;;16.42;71.79;99969.97;10474972;28;20051;-61
2022/10/01 19:07:45;;;;;;;3.85;1.27;;;;;;;16.37;71.93;99980.66;10492012;28;20040;-60
2022/10/01 19:13:10;;;;;;;7.95;0.82;;;;;;;16.34;71.72;99988.41;10472561;28;20143;-61
2022/10/01 19:18:31;;;;;;;8.43;1.58;;;;;;;16.22;72.12;99999.16;10493274;28;20509;-60
2022/10/01 19:24:02;;;;;;;8.30;0.70;;;;;;;16.14;71.99;100016.53;10489662;28;20123;-60
2022/10/01 19:29:29;;;;;;;3.85;0.45;;;;;;;16.07;72.21;100015.75;10482877;28;20075;-59
2022/10/01 19:34:40;;;;;;;6.33;0.97;;;;;;;16.04;72.44;100030.59;10492703;28;20044;-61
2022/10/01 19:39:45;;;;;;;4.38;0.70;;;;;;;16.04;72.48;100035.19;10495935;28;20294;-62
2022/10/01 19:44:59;;;;;;;5.03;0.75;;;;;;;16.02;72.33;100048.94;10485467;28;20120;-63
2022/10/01 19:50:15;;;;;;;4.03;0.50;;;;;;;16.15;72.28;100052.63;10493318;28;20501;-63
2022/10/01 19:55:21;;;;;;;6.97;1.13;;;;;;;16.25;72.22;100063.78;10473779;28;20066;-63
2022/10/01 20:00:23;;;;;;;6.00;0.70;;;;;;;16.26;72.19;100070.91;10493904;28;20790;-62
2022/10/01 20:05:36;;;;;;;8.57;0.70;;;;;;;16.27;72.02;100077.97;10491511;28;20049;-62
2022/10/01 20:10:46;;;;;;;5.75;1.15;;;;;;;16.20;72.07;100096.19;10491827;28;20490;-61
2022/10/01 20:16:11;;;;;;;7.32;0.65;;;;;;;16.22;71.80;100102.22;10492536;28;20511;-64
2022/10/01 20:21:25;;;;;;;3.20;1.00;;;;;;;16.12;71.95;100118.16;10490016;28;20043;-60
2022/10/01 20:26:55;;;;;;;10.07;1.60;;;;;;;16.02;71.92;100119.44;10492677;28;20059;-63
2022/10/01 20:32:12;;;;;;;6.70;0.85;;;;;;;15.98;71.82;100134.50;10488111;28;20067;-60
2022/10/01 20:37:36;;;;;;;11.50;0.88;;;;;;;15.92;72.07;100138.06;10491256;28;20521;-61
2022/10/01 20:42:45;;;;;;;5.93;1.13;;;;;;;15.83;72.19;100142.06;10492208;28;20072;-61
2022/10/01 20:47:53;;;;;;;7.20;1.02;;;;;;;15.73;72.17;100145.22;10492095;28;20079;-63
2022/10/01 20:53:03;;;;;;;6.95;0.70;;;;;;;15.60;72.47;100156.09;10490938;28;20037;-60
2022/10/01 20:58:27;;;;;;;5.70;0.90;;;;;;;15.47;72.94;100170.53;10493754;28;20068;-60
2022/10/01 21:03:33;;;;;;;7.25;0.93;;;;;;;15.42;72.68;100168.47;10475276;28;20434;-62
2022/10/01 21:08:41;;;;;;;5.85;0.65;;;;;;;15.30;73.04;100180.13;10500237;28;20045;-62
2022/10/01 21:13:50;;;;;;;7.80;0.82;;;;;;;15.22;72.96;100183.91;10502433;28;20037;-60
2022/10/01 21:19:29;;;;;;;6.68;1.20;;;;;;;15.16;73.22;100188.28;10466591;28;20510;-62
2022/10/01 21:24:49;;;;;;;9.32;1.27;;;;;;;15.10;73.35;100194.53;10498056;28;20048;-63
2022/10/01 21:30:12;;;;;;;5.90;0.50;;;;;;;15.07;73.36;100208.50;10502906;28;20048;-62
2022/10/01 21:35:46;;;;;;;4.72;1.00;;;;;;;15.14;73.23;100209.31;10500535;28;20495;-62
2022/10/01 21:41:14;;;;;;;6.07;0.93;;;;;;;15.18;73.13;100215.97;10504237;28;20033;-60
2022/10/01 21:46:29;;;;;;;5.35;0.57;;;;;;;15.18;73.27;100221.38;10499662;28;20048;-62
2022/10/01 21:51:54;;;;;;;5.75;0.43;;;;;;;15.20;73.41;100237.44;10478057;28;20041;-60
2022/10/01 21:57:30;;;;;;;6.30;0.55;;;;;;;15.19;73.58;100239.31;10483622;28;20114;-64
2022/10/01 22:02:49;;;;;;;4.47;0.65;;;;;;;15.13;73.87;100251.00;10497758;28;20060;-60
2022/10/01 22:08:05;;;;;;;5.82;0.70;;;;;;;15.10;73.99;100250.56;10499095;28;20074;-64
2022/10/01 22:13:18;;;;;;;3.13;0.60;;;;;;;15.05;73.91;100251.19;10500255;28;20093;-60
2022/10/01 22:18:44;;;;;;;7.60;0.90;;;;;;;14.96;74.41;100255.13;10499907;28;20113;-61
2022/10/01 22:23:52;;;;;;;3.67;1.30;;;;;;;15.00;74.22;100273.47;10500240;28;20086;-60
2022/10/01 22:28:55;;;;;;;6.50;1.00;;;;;;;14.95;74.71;100278.69;10499545;28;20036;-61
2022/10/01 22:34:01;;;;;;;6.57;0.70;;;;;;;14.91;74.24;100281.97;10480160;28;20128;-62
2022/10/01 22:39:18;;;;;;;10.90;0.90;;;;;;;14.92;74.53;100286.38;10496850;28;20052;-62
2022/10/01 22:44:21;;;;;;;11.02;1.80;;;;;;;14.97;74.29;100300.09;10478477;28;20041;-61
2022/10/01 22:50:17;;;;;;;8.48;0.60;;;;;;;14.85;74.73;100308.84;10497582;28;20655;-62
2022/10/01 22:55:46;;;;;;;6.22;0.90;;;;;;;14.94;74.46;100301.34;10445215;28;20042;-61
2022/10/01 23:01:00;;;;;;;8.02;1.58;;;;;;;14.96;74.75;100317.41;10497356;28;20066;-64
2022/10/01 23:06:18;;;;;;;8.88;0.77;;;;;;;14.94;75.06;100319.47;10494474;28;20139;-63
2022/10/01 23:11:50;;;;;;;10.38;1.63;;;;;;;14.98;75.03;100323.44;10493787;28;20568;-62
2022/10/01 23:17:17;;;;;;;4.93;1.02;;;;;;;14.98;75.25;100329.69;10491293;28;20503;-62
2022/10/01 23:23:15;;;;;;;5.05;0.50;;;;;;;15.07;75.09;100343.88;10489317;28;20045;-60
2022/10/01 23:28:48;;;;;;;5.53;1.13;;;;;;;15.07;74.94;100343.88;10410273;28;20435;-61
2022/10/01 23:34:03;;;;;;;5.00;0.93;;;;;;;15.17;74.17;100344.28;10493216;28;20040;-62
2022/10/01 23:39:32;;;;;;;5.22;0.60;;;;;;;15.18;74.04;100342.41;10492541;28;20083;-61
2022/10/01 23:44:50;;;;;;;2.33;0.60;;;;;;;15.19;73.72;100347.63;10491663;28;20045;-60
2022/10/01 23:49:54;;;;;;;3.47;1.20;;;;;;;15.17;73.59;100359.72;10476213;28;20182;-62
2022/10/01 23:56:47;;;;;;;6.22;1.45;;;;;;;15.06;73.44;100364.66;10491468;28;20028;-65
